Time;durP1;ratioP1;P1;durP2;ratioP2;P2;SDS_P1;SDS_P2;PMS_P1;PMS_P2;Temp;Humidity;BMP_temperature;BMP_pressure;BME280_temperature;BME280_humidity;BME280_pressure;Samples;Min_cycle;Max_cycle;Signal;HPM_P1;HPM_P2
2022/03/08 00:01:46;;;;;;;5.90;3.13;;;3.40;99.50;;;;;;5058717;28;20939;-82
2022/03/08 00:04:13;;;;;;;4.93;2.27;;;3.30;99.90;;;;;;5058214;28;20497;-82
2022/03/08 00:06:40;;;;;;;5.07;3.10;;;3.30;99.90;;;;;;5059213;28;20543;-83
2022/03/08 00:09:07;;;;;;;5.07;3.33;;;3.30;99.90;;;;;;5058589;28;20519;-81
2022/03/08 00:11:35;;;;;;;4.87;3.23;;;3.30;99.90;;;;;;5059819;28;20474;-79
2022/03/08 00:14:02;;;;;;;6.63;3.20;;;3.20;99.90;;;;;;5060741;28;20464;-81
2022/03/08 00:16:29;;;;;;;6.20;3.80;;;3.10;99.90;;;;;;5063454;28;20479;-81
2022/03/08 00:19:08;;;;;;;5.10;3.53;;;3.00;99.90;;;;;;5063170;28;20458;-81
2022/03/08 00:21:35;;;;;;;6.07;3.73;;;3.00;99.90;;;;;;5063193;28;20474;-80
2022/03/08 00:24:02;;;;;;;6.60;3.13;;;3.00;99.90;;;;;;5061550;28;20490;-82
2022/03/08 00:26:28;;;;;;;5.40;3.33;;;3.00;99.90;;;;;;5063401;28;20551;-81
2022/03/08 00:28:57;;;;;;;4.67;3.03;;;3.00;99.90;;;;;;5063463;28;20474;-82
2022/03/08 00:31:24;;;;;;;5.03;3.57;;;2.90;99.90;;;;;;5063147;28;20479;-81
2022/03/08 00:33:50;;;;;;;4.60;2.97;;;3.00;99.90;;;;;;5062601;28;20461;-82
2022/03/08 00:36:17;;;;;;;5.20;3.30;;;2.90;99.90;;;;;;5061263;28;20451;-82
2022/03/08 00:38:44;;;;;;;7.27;3.70;;;2.90;99.90;;;;;;5062911;28;20526;-83
2022/03/08 00:41:11;;;;;;;5.30;4.67;;;2.90;99.90;;;;;;5064507;28;20451;-83
2022/03/08 00:43:38;;;;;;;6.60;3.13;;;2.80;99.90;;;;;;5060899;28;21942;-83
2022/03/08 00:46:07;;;;;;;6.10;2.97;;;2.80;99.90;;;;;;5063374;28;20450;-80
2022/03/08 00:48:34;;;;;;;4.10;3.00;;;2.80;99.90;;;;;;5060690;28;20815;-83
2022/03/08 00:51:01;;;;;;;5.13;3.40;;;2.80;99.90;;;;;;5063130;28;20515;-83
2022/03/08 00:53:28;;;;;;;5.83;3.63;;;2.80;99.90;;;;;;5061770;28;20444;-83
2022/03/08 00:55:55;;;;;;;6.50;3.30;;;2.70;99.90;;;;;;5063308;28;20454;-83
2022/03/08 00:58:22;;;;;;;5.53;3.37;;;2.70;99.90;;;;;;5063517;28;20459;-83
2022/03/08 01:00:49;;;;;;;4.33;3.63;;;2.60;99.90;;;;;;5064119;28;20452;-83
2022/03/08 01:03:17;;;;;;;5.63;3.30;;;2.70;99.90;;;;;;5052457;28;20433;-82
2022/03/08 01:05:44;;;;;;;5.77;3.13;;;2.60;99.90;;;;;;5063994;28;20453;-83
2022/03/08 01:08:11;;;;;;;17.50;4.17;;;2.50;99.90;;;;;;5062394;28;20886;-81
2022/03/08 01:10:40;;;;;;;5.97;4.07;;;2.50;99.90;;;;;;5062932;28;20447;-84
2022/03/08 01:13:07;;;;;;;5.77;4.00;;;2.50;99.90;;;;;;5061469;28;20970;-83
2022/03/08 01:15:35;;;;;;;6.23;3.60;;;2.50;99.90;;;;;;5060606;28;20539;-84
2022/03/08 01:18:02;;;;;;;5.80;3.80;;;2.40;99.90;;;;;;5060850;28;20448;-83
2022/03/08 01:20:30;;;;;;;6.17;3.60;;;2.30;99.90;;;;;;5062274;28;20544;-84
2022/03/08 01:22:57;;;;;;;5.10;3.50;;;2.30;99.90;;;;;;5060344;28;20448;-83
2022/03/08 01:25:24;;;;;;;4.80;3.27;;;2.30;99.90;;;;;;5061251;28;20492;-84
2022/03/08 01:27:52;;;;;;;5.27;3.53;;;2.20;99.90;;;;;;5061099;28;20444;-83
2022/03/08 01:30:20;;;;;;;4.00;3.13;;;2.20;99.90;;;;;;5060485;28;20455;-84
2022/03/08 01:32:47;;;;;;;5.17;3.67;;;2.10;99.90;;;;;;5060762;28;20456;-82
2022/03/08 01:35:15;;;;;;;7.77;3.60;;;2.10;99.90;;;;;;5062031;28;20976;-83
2022/03/08 01:37:44;;;;;;;6.27;3.93;;;2.00;99.90;;;;;;5061609;28;20448;-83
2022/03/08 01:40:15;;;;;;;5.77;3.87;;;1.90;99.90;;;;;;5061894;28;20510;-84
2022/03/08 01:42:43;;;;;;;5.20;3.63;;;1.90;99.90;;;;;;5061539;28;20455;-84
2022/03/08 01:45:10;;;;;;;6.03;4.47;;;1.90;99.90;;;;;;5062067;28;20499;-83
2022/03/08 01:47:38;;;;;;;7.93;4.03;;;1.80;99.90;;;;;;5061887;28;20422;-83
2022/03/08 01:50:06;;;;;;;8.80;4.50;;;1.80;99.90;;;;;;5051626;28;20454;-84
2022/03/08 01:52:33;;;;;;;7.93;4.13;;;1.80;99.90;;;;;;5060319;28;20456;-84
2022/03/08 01:55:01;;;;;;;6.00;3.50;;;1.60;99.90;;;;;;5060255;28;20974;-84
2022/03/08 01:57:29;;;;;;;6.40;4.40;;;1.60;99.90;;;;;;5055583;28;20502;-83
2022/03/08 01:59:55;;;;;;;7.43;4.33;;;1.60;99.90;;;;;;5059966;28;20448;-84
2022/03/08 02:02:23;;;;;;;5.60;3.83;;;1.50;99.90;;;;;;5060868;28;20566;-82
2022/03/08 02:04:51;;;;;;;5.90;3.85;;;1.50;99.90;;;;;;5059963;28;20480;-84
2022/03/08 02:07:19;;;;;;;5.77;3.77;;;1.40;99.90;;;;;;5060328;28;20331;-84
2022/03/08 02:09:46;;;;;;;5.68;3.65;;;1.30;99.90;;;;;;5060788;28;20457;-83
2022/03/08 02:12:14;;;;;;;5.50;3.70;;;1.30;99.90;;;;;;5060346;28;20571;-83
2022/03/08 02:14:41;;;;;;;6.63;3.83;;;1.20;99.90;;;;;;5059542;28;20475;-83
2022/03/08 02:17:09;;;;;;;8.20;4.80;;;1.20;99.90;;;;;;5061019;28;20282;-84
2022/03/08 02:19:35;;;;;;;5.68;4.07;;;1.20;99.90;;;;;;5060746;28;20213;-81
2022/03/08 02:22:04;;;;;;;5.40;3.57;;;1.10;99.90;;;;;;5059926;28;20208;-83
2022/03/08 02:24:31;;;;;;;5.70;3.63;;;1.10;99.90;;;;;;5058669;28;20450;-83
2022/03/08 02:27:00;;;;;;;5.13;4.00;;;1.00;99.90;;;;;;5060352;28;20501;-82
2022/03/08 02:29:27;;;;;;;6.55;3.70;;;0.90;99.90;;;;;;5061087;28;20268;-83
2022/03/08 02:31:54;;;;;;;6.17;3.73;;;0.80;99.90;;;;;;5060405;28;20212;-84
2022/03/08 02:34:20;;;;;;;6.53;4.37;;;0.80;99.90;;;;;;5058045;28;20477;-85
2022/03/08 02:36:58;;;;;;;5.15;3.72;;;0.70;99.90;;;;;;5060686;28;20425;-82
2022/03/08 02:39:27;;;;;;;6.43;3.97;;;0.70;99.90;;;;;;5060453;28;20268;-83
2022/03/08 02:41:54;;;;;;;6.38;3.35;;;0.60;99.90;;;;;;5059873;28;20703;-84
2022/03/08 02:44:20;;;;;;;7.40;4.63;;;0.60;99.90;;;;;;5059149;28;20249;-84
2022/03/08 02:46:47;;;;;;;6.82;3.95;;;0.60;99.90;;;;;;5059023;28;20219;-83
2022/03/08 02:49:14;;;;;;;6.07;4.03;;;0.50;99.90;;;;;;5058587;28;20208;-82
2022/03/08 02:51:41;;;;;;;7.40;3.92;;;0.50;99.90;;;;;;5059477;28;20233;-82
2022/03/08 02:54:07;;;;;;;5.10;3.83;;;0.40;99.90;;;;;;5058385;28;20223;-83
2022/03/08 02:56:36;;;;;;;7.07;4.90;;;0.40;99.90;;;;;;5060416;28;20454;-84
2022/03/08 02:59:03;;;;;;;7.70;4.85;;;0.40;99.90;;;;;;5059373;28;20461;-84
2022/03/08 03:01:30;;;;;;;6.18;4.20;;;0.40;99.90;;;;;;5059437;28;20301;-83
2022/03/08 03:03:58;;;;;;;6.25;4.50;;;0.30;99.90;;;;;;5059028;28;20232;-83
2022/03/08 03:06:24;;;;;;;7.75;4.25;;;0.30;99.90;;;;;;5059156;28;20257;-83
2022/03/08 03:08:51;;;;;;;6.10;4.13;;;0.30;99.90;;;;;;5059819;28;20208;-83
2022/03/08 03:11:18;;;;;;;8.83;4.87;;;0.20;99.90;;;;;;5059344;28;20259;-84
2022/03/08 03:13:46;;;;;;;8.00;4.40;;;0.20;99.90;;;;;;5057963;28;20505;-84
2022/03/08 03:16:13;;;;;;;7.13;4.25;;;0.20;99.90;;;;;;5058675;28;20195;-83
2022/03/08 03:18:40;;;;;;;6.07;4.88;;;0.20;99.90;;;;;;5058922;28;20204;-83
2022/03/08 03:21:07;;;;;;;7.82;3.90;;;0.20;99.90;;;;;;5059259;28;20225;-84
2022/03/08 03:23:33;;;;;;;5.55;4.00;;;0.20;99.90;;;;;;5058220;28;20211;-84
2022/03/08 03:26:00;;;;;;;6.47;4.20;;;0.20;99.90;;;;;;5057419;28;20217;-83
2022/03/08 03:28:27;;;;;;;5.90;4.40;;;0.10;99.90;;;;;;5058355;28;20232;-84
2022/03/08 03:30:55;;;;;;;6.25;3.92;;;0.10;99.90;;;;;;5057984;28;20219;-84
2022/03/08 03:33:22;;;;;;;7.55;5.00;;;0.00;99.90;;;;;;5057481;28;20290;-82
2022/03/08 03:35:49;;;;;;;5.75;3.90;;;0.00;99.90;;;;;;5058633;28;20208;-84
2022/03/08 03:38:15;;;;;;;8.30;4.40;;;0.00;99.90;;;;;;5057781;28;20209;-85
2022/03/08 03:40:42;;;;;;;7.88;4.75;;;0.00;99.90;;;;;;5057594;28;20214;-84
2022/03/08 03:43:11;;;;;;;6.35;4.30;;;0.00;99.90;;;;;;5058276;28;20257;-83
2022/03/08 03:45:38;;;;;;;7.63;5.50;;;0.00;99.90;;;;;;5060662;28;20231;-83
2022/03/08 03:48:06;;;;;;;8.02;5.07;;;-0.10;99.90;;;;;;5063030;28;20200;-83
2022/03/08 03:50:33;;;;;;;6.30;4.70;;;-0.20;99.90;;;;;;5063246;28;20295;-84
2022/03/08 03:53:00;;;;;;;8.48;4.72;;;-0.20;99.90;;;;;;5062303;28;20212;-82
2022/03/08 03:55:27;;;;;;;5.22;4.15;;;-0.20;99.90;;;;;;5066622;28;20228;-82
2022/03/08 03:57:54;;;;;;;8.70;4.85;;;-0.10;99.90;;;;;;5070488;28;20740;-84
2022/03/08 04:00:21;;;;;;;5.75;4.63;;;-0.10;99.90;;;;;;5070020;28;20197;-84
2022/03/08 04:02:47;;;;;;;7.63;4.95;;;-0.10;99.90;;;;;;5052629;28;20215;-82
2022/03/08 04:05:15;;;;;;;7.07;4.80;;;-0.10;99.90;;;;;;5063251;28;20246;-84
2022/03/08 04:07:42;;;;;;;7.97;5.13;;;-0.20;99.90;;;;;;5071612;28;20236;-84
2022/03/08 04:10:11;;;;;;;10.10;5.35;;;-0.20;99.90;;;;;;5071212;28;20207;-83
2022/03/08 04:12:38;;;;;;;8.35;5.28;;;-0.20;99.90;;;;;;5072162;28;20617;-83
2022/03/08 04:15:06;;;;;;;8.63;5.38;;;-0.10;99.90;;;;;;5071281;28;20588;-83
2022/03/08 04:17:32;;;;;;;6.50;5.10;;;-0.10;99.90;;;;;;5071801;28;20685;-83
2022/03/08 04:19:59;;;;;;;8.13;5.80;;;-0.10;99.90;;;;;;5071256;28;20287;-81
2022/03/08 04:22:27;;;;;;;11.88;6.38;;;-0.10;99.90;;;;;;5072434;28;20973;-84
2022/03/08 04:24:54;;;;;;;6.72;4.72;;;0.00;99.90;;;;;;5071481;28;20225;-83
2022/03/08 04:27:21;;;;;;;8.48;5.28;;;0.10;99.90;;;;;;5069980;28;20200;-83
2022/03/08 04:29:48;;;;;;;8.82;5.95;;;0.10;99.90;;;;;;5065720;28;20212;-83
2022/03/08 04:32:15;;;;;;;8.20;5.00;;;0.20;99.90;;;;;;5065673;28;20214;-84
2022/03/08 04:34:42;;;;;;;10.50;5.88;;;0.30;99.90;;;;;;5064073;28;20220;-84
2022/03/08 04:37:09;;;;;;;8.82;5.75;;;0.30;99.90;;;;;;5065972;28;20212;-83
2022/03/08 04:39:37;;;;;;;7.43;5.25;;;0.30;99.90;;;;;;5064262;28;20212;-84
2022/03/08 04:42:05;;;;;;;9.65;5.82;;;0.40;99.90;;;;;;5064839;28;20204;-84
2022/03/08 04:44:32;;;;;;;8.43;5.63;;;0.40;99.90;;;;;;5064419;28;20291;-83
2022/03/08 04:46:58;;;;;;;7.97;5.10;;;0.40;99.90;;;;;;5067841;28;20208;-82
2022/03/08 04:49:25;;;;;;;7.18;5.45;;;0.30;99.90;;;;;;5069593;28;20441;-82
2022/03/08 04:51:52;;;;;;;8.33;6.00;;;0.40;99.90;;;;;;5088993;28;20207;-82
2022/03/08 04:54:19;;;;;;;8.25;6.00;;;0.40;99.90;;;;;;5091071;28;20496;-84
2022/03/08 04:56:47;;;;;;;7.40;5.45;;;0.30;99.90;;;;;;5084827;28;20223;-81
2022/03/08 04:59:14;;;;;;;7.03;5.22;;;0.40;99.90;;;;;;5070738;28;20845;-83
2022/03/08 05:01:41;;;;;;;9.05;5.63;;;0.50;99.90;;;;;;5070407;28;20213;-83
2022/03/08 05:04:08;;;;;;;9.43;5.28;;;0.50;99.90;;;;;;5070247;28;20290;-83
2022/03/08 05:06:34;;;;;;;7.20;4.95;;;0.50;99.90;;;;;;5070310;28;20212;-81
2022/03/08 05:09:01;;;;;;;8.57;5.22;;;0.50;99.90;;;;;;5071826;28;20239;-83
2022/03/08 05:11:28;;;;;;;6.05;4.55;;;0.50;99.90;;;;;;5071360;28;20219;-83
2022/03/08 05:13:56;;;;;;;8.60;4.90;;;0.40;99.90;;;;;;5070100;28;20302;-82
2022/03/08 05:16:23;;;;;;;10.15;6.93;;;0.50;99.90;;;;;;5068725;28;20204;-82
2022/03/08 05:18:50;;;;;;;9.80;6.00;;;0.40;99.90;;;;;;5069192;28;20688;-83
2022/03/08 05:21:17;;;;;;;10.75;6.07;;;0.40;99.90;;;;;;5069332;28;20214;-82
2022/03/08 05:23:44;;;;;;;10.18;6.63;;;0.50;99.90;;;;;;5068688;28;20218;-83
2022/03/08 05:26:10;;;;;;;8.85;5.45;;;0.50;99.90;;;;;;5063159;28;20233;-82
2022/03/08 05:28:37;;;;;;;8.90;5.28;;;0.50;99.90;;;;;;5060379;28;20198;-81
2022/03/08 05:31:05;;;;;;;7.45;5.50;;;0.50;99.90;;;;;;5059837;28;20209;-85
2022/03/08 05:33:32;;;;;;;9.05;6.10;;;0.40;99.90;;;;;;5060417;28;20647;-84
2022/03/08 05:35:59;;;;;;;8.67;5.97;;;0.50;99.90;;;;;;5060302;28;20262;-83
2022/03/08 05:38:26;;;;;;;7.47;5.53;;;0.50;99.90;;;;;;5061021;28;20450;-84
2022/03/08 05:40:53;;;;;;;11.48;6.43;;;0.50;99.90;;;;;;5067710;28;20212;-83
2022/03/08 05:43:20;;;;;;;9.20;6.10;;;0.40;99.90;;;;;;5069989;28;20202;-83
2022/03/08 05:45:47;;;;;;;8.27;6.20;;;0.40;99.90;;;;;;5069791;28;20489;-81
2022/03/08 05:48:15;;;;;;;8.48;5.68;;;0.40;99.90;;;;;;5071623;28;20235;-84
2022/03/08 05:50:42;;;;;;;7.55;6.35;;;0.30;99.90;;;;;;5068716;28;20201;-84
2022/03/08 05:53:09;;;;;;;10.77;5.50;;;0.40;99.90;;;;;;5067850;28;20207;-81
2022/03/08 05:55:35;;;;;;;9.90;5.83;;;0.30;99.90;;;;;;5067567;28;20295;-80
2022/03/08 05:58:02;;;;;;;8.73;5.78;;;0.30;99.90;;;;;;5067842;28;20450;-84
2022/03/08 06:00:29;;;;;;;10.50;6.70;;;0.30;99.90;;;;;;5066150;28;20589;-84
2022/03/08 06:02:56;;;;;;;11.48;6.22;;;0.30;99.90;;;;;;5067786;28;20304;-83
2022/03/08 06:05:24;;;;;;;8.90;6.05;;;0.40;99.90;;;;;;5067792;28;20256;-82
2022/03/08 06:07:51;;;;;;;8.20;5.95;;;0.40;99.90;;;;;;5068209;28;20312;-83
2022/03/08 06:10:18;;;;;;;9.38;6.53;;;0.40;99.90;;;;;;5066187;28;20233;-80
2022/03/08 06:12:44;;;;;;;9.35;5.88;;;0.40;99.90;;;;;;5056111;28;20225;-81
2022/03/08 06:15:12;;;;;;;9.38;6.25;;;0.40;99.90;;;;;;5035589;28;20232;-81
2022/03/08 06:17:38;;;;;;;11.05;6.28;;;0.40;99.90;;;;;;5037193;28;20213;-80
2022/03/08 06:20:07;;;;;;;7.90;5.78;;;0.10;99.90;;;;;;5057661;28;20204;-83
2022/03/08 06:22:35;;;;;;;12.60;5.35;;;0.40;99.90;;;;;;5053971;28;20211;-82
2022/03/08 06:25:02;;;;;;;10.52;6.97;;;0.40;99.90;;;;;;5049568;28;20256;-83
2022/03/08 06:27:28;;;;;;;7.65;6.05;;;0.40;99.90;;;;;;5055917;28;20215;-84
2022/03/08 06:29:55;;;;;;;10.43;6.25;;;0.40;99.90;;;;;;5058135;28;20700;-83
2022/03/08 06:32:22;;;;;;;9.57;5.80;;;0.50;99.90;;;;;;5058220;28;20205;-83
2022/03/08 06:34:50;;;;;;;10.32;6.38;;;0.50;99.90;;;;;;5057022;28;20482;-83
2022/03/08 06:37:18;;;;;;;14.65;7.50;;;0.50;99.90;;;;;;5056920;28;20613;-83
2022/03/08 06:39:47;;;;;;;10.27;5.95;;;0.60;99.90;;;;;;5058335;28;20204;-84
2022/03/08 06:42:13;;;;;;;10.45;5.90;;;0.60;99.90;;;;;;5051994;28;20586;-82
2022/03/08 06:44:40;;;;;;;8.83;5.77;;;0.60;99.90;;;;;;5057080;28;20235;-82
2022/03/08 06:47:08;;;;;;;10.45;6.68;;;0.60;99.90;;;;;;5057724;28;20486;-83
2022/03/08 06:49:35;;;;;;;8.77;5.18;;;0.70;99.90;;;;;;5059122;28;20208;-83
2022/03/08 06:52:01;;;;;;;11.50;6.20;;;0.80;99.90;;;;;;5061084;28;20205;-83
2022/03/08 06:54:28;;;;;;;10.10;5.63;;;0.80;99.90;;;;;;5060334;28;20501;-83
2022/03/08 06:56:56;;;;;;;10.35;6.55;;;0.90;99.90;;;;;;5061094;28;20451;-84
2022/03/08 06:59:24;;;;;;;12.85;6.03;;;1.00;99.90;;;;;;5059992;28;20235;-82
2022/03/08 07:01:50;;;;;;;9.23;6.53;;;1.00;99.90;;;;;;5061654;28;20223;-83
2022/03/08 07:04:17;;;;;;;11.27;6.30;;;1.10;99.90;;;;;;5064325;28;20965;-84
2022/03/08 07:06:45;;;;;;;10.43;5.57;;;1.10;99.90;;;;;;5069761;28;20741;-82
2022/03/08 07:09:12;;;;;;;9.90;5.85;;;1.20;99.90;;;;;;5069646;28;20206;-84
2022/03/08 07:11:44;;;;;;;8.83;5.87;;;1.30;99.90;;;;;;5062659;28;20194;-83
2022/03/08 07:14:17;;;;;;;9.80;5.93;;;1.40;99.90;;;;;;5067174;28;20452;-82
2022/03/08 07:16:44;;;;;;;13.10;7.10;;;1.40;99.90;;;;;;5066688;28;20185;-83
2022/03/08 07:19:12;;;;;;;11.38;5.22;;;1.50;99.90;;;;;;5068103;28;20982;-82
2022/03/08 07:21:39;;;;;;;8.50;5.60;;;1.60;99.90;;;;;;5065016;28;20196;-83
2022/03/08 07:24:08;;;;;;;8.23;4.67;;;1.70;99.90;;;;;;5066982;28;20475;-82
2022/03/08 07:26:35;;;;;;;8.87;6.10;;;1.80;99.90;;;;;;5069904;28;20494;-83
2022/03/08 07:29:02;;;;;;;8.50;6.23;;;1.90;99.90;;;;;;5067034;28;20451;-83
2022/03/08 07:31:30;;;;;;;8.23;5.50;;;2.00;99.90;;;;;;5068659;28;20535;-84
2022/03/08 07:34:00;;;;;;;8.47;5.47;;;2.00;99.90;;;;;;5065470;28;20511;-83
2022/03/08 07:36:27;;;;;;;9.17;5.70;;;2.20;99.90;;;;;;5064899;28;20443;-83
2022/03/08 07:38:54;;;;;;;9.80;5.77;;;2.30;99.90;;;;;;5062202;28;20431;-81
2022/03/08 07:41:21;;;;;;;7.83;5.20;;;2.40;99.90;;;;;;5066730;28;20448;-83
2022/03/08 07:43:48;;;;;;;10.00;5.63;;;2.50;99.90;;;;;;5064488;28;20459;-83
2022/03/08 07:46:15;;;;;;;10.40;5.47;;;2.60;99.90;;;;;;5063849;28;20545;-81
2022/03/08 07:48:43;;;;;;;9.13;5.47;;;2.70;99.90;;;;;;5063981;28;20493;-79
2022/03/08 07:51:10;;;;;;;7.97;5.00;;;2.80;99.90;;;;;;5057519;28;20447;-78
2022/03/08 07:53:37;;;;;;;10.43;5.43;;;3.00;99.90;;;;;;5057123;28;20940;-79
2022/03/08 07:56:04;;;;;;;10.57;6.03;;;3.00;99.90;;;;;;5060205;28;20535;-79
2022/03/08 07:58:31;;;;;;;9.70;6.23;;;3.10;99.90;;;;;;5059772;28;20842;-80
2022/03/08 08:00:58;;;;;;;12.20;5.60;;;3.20;99.90;;;;;;5060703;28;20494;-79
2022/03/08 08:03:25;;;;;;;8.33;5.50;;;3.30;99.90;;;;;;5057654;28;20458;-80
2022/03/08 08:05:53;;;;;;;7.87;5.03;;;3.30;99.90;;;;;;5053854;28;20476;-81
2022/03/08 08:08:20;;;;;;;9.90;5.50;;;3.40;99.90;;;;;;5056216;28;20488;-80
2022/03/08 08:10:46;;;;;;;10.97;5.40;;;3.50;99.90;;;;;;5055117;28;20964;-79
2022/03/08 08:13:13;;;;;;;8.30;4.83;;;3.60;99.90;;;;;;5040871;28;20483;-79
2022/03/08 08:15:41;;;;;;;6.93;5.07;;;3.70;99.90;;;;;;5055330;28;20468;-81
2022/03/08 08:18:08;;;;;;;9.13;4.80;;;3.90;99.90;;;;;;5056370;28;20488;-80
2022/03/08 08:20:35;;;;;;;10.70;6.17;;;4.10;99.90;;;;;;5056203;28;20475;-79
2022/03/08 08:23:03;;;;;;;6.97;5.23;;;4.40;99.90;;;;;;5055944;28;20447;-79
2022/03/08 08:25:30;;;;;;;8.80;5.57;;;4.70;99.90;;;;;;5055827;28;20479;-80
2022/03/08 08:27:57;;;;;;;11.50;5.80;;;4.90;99.90;;;;;;5056105;28;20452;-80
2022/03/08 08:30:24;;;;;;;8.43;5.33;;;5.20;99.90;;;;;;5054290;28;20457;-80
2022/03/08 08:32:53;;;;;;;7.03;5.47;;;5.60;99.90;;;;;;5057711;28;20459;-79
2022/03/08 08:35:20;;;;;;;9.10;5.10;;;5.70;99.90;;;;;;5059212;28;20508;-80
2022/03/08 08:37:47;;;;;;;8.80;5.43;;;6.00;99.90;;;;;;5059574;28;20450;-80
2022/03/08 08:40:15;;;;;;;11.03;5.40;;;6.50;99.90;;;;;;5059654;28;20538;-79
2022/03/08 08:42:42;;;;;;;8.53;5.33;;;7.30;99.90;;;;;;5059524;28;20451;-80
2022/03/08 08:45:10;;;;;;;8.23;5.40;;;7.90;99.90;;;;;;5057489;28;20830;-79
2022/03/08 08:47:37;;;;;;;10.00;5.50;;;8.60;99.90;;;;;;5058566;28;20482;-80
2022/03/08 08:50:04;;;;;;;8.47;4.60;;;8.30;99.90;;;;;;5058324;28;20457;-79
2022/03/08 08:52:31;;;;;;;12.47;6.70;;;8.10;99.90;;;;;;5058375;28;20958;-80
2022/03/08 08:54:58;;;;;;;8.43;5.60;;;8.40;99.90;;;;;;5058418;28;20472;-79
2022/03/08 08:57:26;;;;;;;7.17;4.60;;;8.90;99.90;;;;;;5058458;28;20831;-79
2022/03/08 08:59:53;;;;;;;9.80;4.80;;;9.70;99.90;;;;;;5058717;28;20463;-80
2022/03/08 09:02:20;;;;;;;6.10;4.50;;;10.60;99.90;;;;;;5058615;28;20465;-80
2022/03/08 09:04:46;;;;;;;5.57;4.47;;;11.30;99.90;;;;;;5057882;28;20561;-79
2022/03/08 09:07:13;;;;;;;6.60;5.00;;;12.00;99.90;;;;;;5058182;28;20482;-80
2022/03/08 09:09:40;;;;;;;6.70;5.53;;;11.70;99.90;;;;;;5057470;28;20459;-81
2022/03/08 09:12:08;;;;;;;6.03;4.80;;;12.00;99.90;;;;;;5058561;28;20454;-80
2022/03/08 09:14:36;;;;;;;7.67;4.53;;;11.70;97.90;;;;;;5056818;28;20571;-80
2022/03/08 09:17:03;;;;;;;5.90;4.10;;;11.80;98.60;;;;;;5057818;28;20451;-80
2022/03/08 09:19:30;;;;;;;7.90;4.83;;;12.20;95.10;;;;;;5057651;28;20528;-81
2022/03/08 09:21:57;;;;;;;9.73;4.37;;;13.00;96.50;;;;;;5058082;28;20453;-81
2022/03/08 09:24:24;;;;;;;6.30;4.33;;;13.70;92.60;;;;;;5057021;28;20468;-80
2022/03/08 09:26:50;;;;;;;5.50;4.27;;;13.80;90.80;;;;;;5057439;28;20674;-78
2022/03/08 09:29:17;;;;;;;7.10;4.10;;;14.10;90.70;;;;;;5055277;28;20559;-80
2022/03/08 09:31:46;;;;;;;5.47;3.97;;;14.50;83.70;;;;;;5058581;28;20465;-80
2022/03/08 09:34:13;;;;;;;6.63;5.20;;;15.30;79.60;;;;;;5056879;28;20996;-79
2022/03/08 09:36:39;;;;;;;7.10;4.00;;;15.30;80.80;;;;;;5057467;28;20539;-79
2022/03/08 09:39:06;;;;;;;5.17;4.30;;;15.40;73.70;;;;;;5057284;28;20839;-80
2022/03/08 09:41:34;;;;;;;6.57;4.40;;;16.00;72.00;;;;;;5057057;28;20451;-79
2022/03/08 09:44:01;;;;;;;4.43;3.40;;;17.00;67.90;;;;;;5056704;28;20477;-78
2022/03/08 09:46:28;;;;;;;7.20;3.70;;;18.30;67.50;;;;;;5057579;28;20475;-80
2022/03/08 09:48:57;;;;;;;4.97;4.00;;;18.70;59.50;;;;;;5052512;28;20462;-79
2022/03/08 09:51:25;;;;;;;6.00;4.57;;;20.00;58.50;;;;;;5055711;28;20951;-80
2022/03/08 09:53:54;;;;;;;5.80;4.17;;;19.90;51.20;;;;;;5055354;28;20470;-79
2022/03/08 09:56:23;;;;;;;5.80;4.30;;;19.20;49.70;;;;;;5056349;28;20867;-79
2022/03/08 09:58:50;;;;;;;4.63;3.97;;;19.70;48.30;;;;;;5056665;28;20454;-79
2022/03/08 10:01:17;;;;;;;4.97;3.70;;;19.40;48.70;;;;;;5055960;28;20451;-79
2022/03/08 10:03:46;;;;;;;5.83;4.23;;;19.60;46.60;;;;;;5055051;28;20477;-79
2022/03/08 10:06:14;;;;;;;5.73;4.17;;;20.40;47.40;;;;;;5054857;28;20494;-80
2022/03/08 10:08:41;;;;;;;5.37;3.23;;;21.00;45.50;;;;;;5051201;28;20481;-80
2022/03/08 10:11:11;;;;;;;5.03;4.53;;;20.70;44.90;;;;;;5053353;28;20465;-82
2022/03/08 10:13:43;;;;;;;6.10;4.73;;;20.70;44.20;;;;;;5055260;28;20462;-79
2022/03/08 10:16:12;;;;;;;6.77;4.10;;;20.40;44.80;;;;;;5056355;28;20446;-80
2022/03/08 10:18:42;;;;;;;5.63;3.83;;;20.40;44.20;;;;;;5056542;28;20519;-80
2022/03/08 10:21:33;;;;;;;5.20;4.40;;;21.60;42.60;;;;;;5056087;28;20459;-79
2022/03/08 10:24:02;;;;;;;5.47;4.20;;;22.10;42.20;;;;;;5053777;28;20466;-80
2022/03/08 10:26:30;;;;;;;5.43;4.03;;;21.00;42.10;;;;;;5055965;28;20488;-81
2022/03/08 10:28:59;;;;;;;4.60;3.50;;;22.10;43.40;;;;;;5056127;28;20456;-81
2022/03/08 10:31:25;;;;;;;7.40;3.90;;;22.60;41.30;;;;;;5055235;28;20451;-79
2022/03/08 10:33:53;;;;;;;5.50;3.97;;;22.20;42.40;;;;;;5054643;28;20485;-79
2022/03/08 10:36:22;;;;;;;4.83;4.37;;;22.90;41.20;;;;;;5055404;28;20458;-81
2022/03/08 10:39:12;;;;;;;4.20;3.43;;;22.30;39.80;;;;;;5055329;28;20898;-80
2022/03/08 10:41:51;;;;;;;5.70;4.13;;;22.30;41.90;;;;;;5055205;28;20444;-80
2022/03/08 10:44:31;;;;;;;4.43;3.60;;;22.40;40.60;;;;;;5054076;28;20479;-81
2022/03/08 10:47:03;;;;;;;5.97;4.53;;;20.80;39.10;;;;;;5055307;28;20502;-79
2022/03/08 10:49:30;;;;;;;5.13;4.43;;;21.10;39.60;;;;;;5054727;28;20471;-80
2022/03/08 10:52:05;;;;;;;5.37;4.10;;;21.10;41.50;;;;;;5055791;28;20454;-80
2022/03/08 10:54:34;;;;;;;5.03;3.80;;;22.90;41.50;;;;;;5053573;28;20486;-79
2022/03/08 10:57:02;;;;;;;4.83;4.33;;;23.90;41.10;;;;;;5055393;28;20456;-78
2022/03/08 10:59:29;;;;;;;7.03;4.10;;;24.70;40.10;;;;;;5054086;28;20456;-80
2022/03/08 11:01:56;;;;;;;4.87;4.23;;;25.20;40.20;;;;;;5055435;28;20527;-79
2022/03/08 11:04:24;;;;;;;4.70;4.20;;;25.60;37.00;;;;;;5050374;28;20479;-81
2022/03/08 11:06:52;;;;;;;4.60;3.90;;;25.00;39.30;;;;;;5054662;28;20575;-83
2022/03/08 11:09:20;;;;;;;5.10;4.60;;;25.30;41.10;;;;;;5055920;28;20464;-82
2022/03/08 11:11:49;;;;;;;5.77;4.00;;;25.20;38.80;;;;;;5057278;28;20956;-81
2022/03/08 11:14:16;;;;;;;5.47;3.93;;;26.40;39.60;;;;;;5056040;28;21003;-83
2022/03/08 11:16:46;;;;;;;16.03;5.77;;;25.90;38.10;;;;;;5056563;28;20480;-81
2022/03/08 11:19:14;;;;;;;4.90;4.40;;;26.00;37.50;;;;;;5056224;28;20453;-82
2022/03/08 11:21:41;;;;;;;4.30;3.90;;;24.90;37.20;;;;;;5048987;28;20452;-82
2022/03/08 11:24:09;;;;;;;5.07;4.53;;;26.10;35.90;;;;;;5056116;28;21108;-82
2022/03/08 11:26:37;;;;;;;5.93;4.30;;;25.80;38.10;;;;;;5056477;28;20464;-82
2022/03/08 11:29:05;;;;;;;4.30;3.80;;;26.20;36.30;;;;;;5055403;28;20443;-80
2022/03/08 11:31:36;;;;;;;5.00;4.03;;;25.60;37.00;;;;;;5050055;28;20974;-81
2022/03/08 11:34:11;;;;;;;7.40;4.47;;;26.50;36.50;;;;;;5056203;28;20551;-81
2022/03/08 11:36:40;;;;;;;5.67;4.80;;;26.40;35.40;;;;;;5055603;28;20963;-80
2022/03/08 11:39:18;;;;;;;5.47;4.30;;;26.60;35.50;;;;;;5056354;28;20451;-82
2022/03/08 11:41:47;;;;;;;6.70;5.43;;;26.60;36.30;;;;;;5058303;28;20941;-82
2022/03/08 11:44:27;;;;;;;6.03;5.43;;;26.60;35.60;;;;;;5055625;28;20475;-80
2022/03/08 11:47:10;;;;;;;5.33;4.10;;;26.80;33.70;;;;;;5055200;28;20451;-80
2022/03/08 11:49:47;;;;;;;7.10;4.70;;;28.30;33.30;;;;;;5056253;28;20447;-83
2022/03/08 11:52:19;;;;;;;6.77;5.80;;;27.20;31.90;;;;;;5055683;28;20447;-80
2022/03/08 11:54:54;;;;;;;4.80;4.30;;;27.40;32.80;;;;;;5054177;28;20472;-80
2022/03/08 11:58:01;;;;;;;4.10;3.27;;;27.60;33.30;;;;;;5036250;28;20488;-81
2022/03/08 12:00:35;;;;;;;6.90;3.97;;;28.00;31.50;;;;;;5052499;28;20870;-80
2022/03/08 12:03:04;;;;;;;3.93;3.00;;;27.10;31.70;;;;;;5052158;28;20997;-80
2022/03/08 12:05:45;;;;;;;4.30;2.90;;;26.70;32.40;;;;;;5055476;28;20472;-82
2022/03/08 12:08:52;;;;;;;4.70;3.00;;;26.40;31.30;;;;;;5059207;28;20535;-80
2022/03/08 12:11:34;;;;;;;6.70;3.60;;;27.70;33.10;;;;;;5044911;28;20469;-80
2022/03/08 12:14:17;;;;;;;3.40;2.73;;;28.40;30.40;;;;;;5058164;28;20498;-79
2022/03/08 12:16:47;;;;;;;4.53;2.77;;;28.20;30.00;;;;;;5051692;28;20458;-82
2022/03/08 12:19:20;;;;;;;6.77;2.80;;;28.10;31.10;;;;;;5058652;28;20934;-81
2022/03/08 12:21:55;;;;;;;4.77;2.63;;;28.00;30.00;;;;;;5057346;28;20455;-80
2022/03/08 12:24:23;;;;;;;6.00;2.30;;;26.70;30.30;;;;;;5059291;28;20498;-81
2022/03/08 12:26:56;;;;;;;4.13;3.07;;;27.70;32.10;;;;;;5059235;28;20550;-82
2022/03/08 12:29:25;;;;;;;2.90;2.30;;;28.40;29.60;;;;;;5060222;28;20955;-79
2022/03/08 12:32:24;;;;;;;3.83;2.97;;;26.80;30.40;;;;;;5057792;28;20562;-80
2022/03/08 12:34:54;;;;;;;3.30;2.83;;;27.30;30.00;;;;;;5034979;28;20498;-82
2022/03/08 12:37:22;;;;;;;3.80;2.77;;;28.50;30.80;;;;;;5059069;28;20861;-79
2022/03/08 12:39:53;;;;;;;4.60;3.00;;;29.80;30.80;;;;;;5057575;28;20454;-79
2022/03/08 12:42:22;;;;;;;3.50;3.00;;;29.60;30.00;;;;;;5054744;28;20456;-79
2022/03/08 12:44:59;;;;;;;3.73;2.77;;;28.70;29.60;;;;;;5055661;28;21041;-80
2022/03/08 12:47:29;;;;;;;4.00;2.83;;;28.70;29.10;;;;;;5050220;28;20551;-81
2022/03/08 12:50:02;;;;;;;5.10;3.33;;;29.60;30.40;;;;;;5050305;28;20546;-81
2022/03/08 12:52:34;;;;;;;6.40;3.70;;;29.30;30.00;;;;;;5056947;28;22029;-81
2022/03/08 12:55:03;;;;;;;5.10;3.17;;;29.00;28.40;;;;;;5055804;28;20468;-80
2022/03/08 12:57:30;;;;;;;3.50;2.83;;;27.60;29.60;;;;;;5054258;28;20480;-79
2022/03/08 12:59:57;;;;;;;4.87;3.10;;;26.90;30.40;;;;;;5056312;28;20452;-80